PN47 weather

Lohr's Landing Airport
Jennerstown, Pennsylvania, United States

Public forecast

Using degrees Fahrenheit for public forecast. Weather courtesy of forecast.io.

Closest aviation weather report (METAR) to Lohr's Landing Airport

Closest report is Somerset County Airport, 10.3 nm (19.1 km) S. Retrieved 2020/06/04 01:35 UTC (19 minutes ago):

K2G9 040135Z AUTO 23012KT 10SM CLR 20/16 A2987 RMK AO2

Closest aviation forecast (TAF) to Lohr's Landing Airport

Closest forecast is John Murtha Johnstown Cambria County Airport, 12.1 nm (22.3 km) ENE. Retrieved 2020-06-04 00:48 UTC (1 hour ago):

TAF KJST 032345Z 0400/0424 28010G22KT P6SM BKN060 BKN080 FM040100 27004KT P6SM BKN100 FM042000 23008KT P6SM VCTS OVC050CB FM042200 24007KT 5SM -SHRA BR BKN050